createdAt,value
2017-06-26T00:00:53.356Z,2.43
2017-06-26T00:03:22.506Z,2.10
2017-06-26T00:05:51.759Z,1.93
2017-06-26T00:08:20.911Z,2.50
2017-06-26T00:10:50.050Z,1.90
2017-06-26T00:13:19.205Z,2.40
2017-06-26T00:15:48.369Z,2.20
2017-06-26T00:18:17.519Z,2.20
2017-06-26T00:20:46.708Z,2.70
2017-06-26T00:23:15.853Z,2.23
2017-06-26T00:25:45.006Z,2.40
2017-06-26T00:28:14.168Z,2.30
2017-06-26T00:30:43.332Z,2.33
2017-06-26T00:33:12.498Z,2.13
2017-06-26T00:35:41.678Z,1.80
2017-06-26T00:38:10.832Z,2.05
2017-06-26T00:40:39.998Z,1.80
2017-06-26T00:43:09.141Z,2.62
2017-06-26T00:45:38.300Z,2.23
2017-06-26T00:48:07.458Z,2.00
2017-06-26T00:50:36.627Z,2.50
2017-06-26T00:53:05.799Z,1.90
2017-06-26T00:55:34.947Z,2.80
2017-06-26T00:58:04.103Z,2.03
2017-06-26T01:00:33.246Z,2.00
2017-06-26T01:03:02.405Z,2.40
2017-06-26T01:05:31.565Z,2.37
2017-06-26T01:08:00.712Z,2.47
2017-06-26T01:10:29.880Z,2.50
2017-06-26T01:12:59.026Z,2.50
2017-06-26T01:15:28.186Z,2.30
2017-06-26T01:17:57.351Z,2.20
2017-06-26T01:20:26.513Z,2.40
2017-06-26T01:22:55.660Z,2.60
2017-06-26T01:25:24.804Z,1.90
2017-06-26T01:27:53.971Z,2.15
2017-06-26T01:30:23.127Z,2.45
2017-06-26T01:32:52.301Z,2.37
2017-06-26T01:35:21.461Z,2.33
2017-06-26T01:37:50.614Z,2.28
2017-06-26T01:40:19.795Z,2.60
2017-06-26T01:42:48.955Z,2.07
2017-06-26T01:45:18.108Z,2.30
2017-06-26T01:47:47.258Z,2.55
2017-06-26T01:50:16.701Z,2.10
2017-06-26T01:52:45.884Z,2.20
2017-06-26T01:55:15.021Z,2.07
2017-06-26T01:57:44.179Z,2.00
2017-06-26T02:00:13.328Z,1.92
2017-06-26T02:02:42.499Z,2.30
2017-06-26T02:05:11.651Z,1.80
2017-06-26T02:07:40.802Z,1.90
2017-06-26T02:10:09.955Z,1.95
2017-06-26T02:12:39.106Z,2.28
2017-06-26T02:15:08.272Z,2.17
2017-06-26T02:17:37.424Z,2.10
2017-06-26T02:20:06.574Z,2.03
2017-06-26T02:22:35.722Z,2.53
2017-06-26T02:25:04.869Z,2.15
2017-06-26T02:27:34.027Z,2.20
2017-06-26T02:30:03.187Z,2.53
2017-06-26T02:32:32.331Z,2.17
2017-06-26T02:35:01.510Z,2.70
2017-06-26T02:37:30.656Z,2.33
2017-06-26T02:39:59.807Z,2.60
2017-06-26T02:42:28.955Z,2.95
2017-06-26T02:44:58.145Z,2.37
2017-06-26T02:47:27.288Z,2.40
2017-06-26T02:49:56.478Z,2.40
2017-06-26T02:52:25.606Z,2.90
2017-06-26T02:54:54.799Z,2.45
2017-06-26T02:57:23.944Z,2.35
2017-06-26T02:59:53.096Z,2.40
2017-06-26T03:02:22.251Z,2.70
2017-06-26T03:04:51.403Z,2.20
2017-06-26T03:07:20.572Z,2.50
2017-06-26T03:09:49.735Z,2.30
2017-06-26T03:12:18.899Z,2.50
2017-06-26T03:14:48.047Z,2.75
2017-06-26T03:17:17.195Z,3.00
2017-06-26T03:19:46.362Z,2.30
2017-06-26T03:22:15.516Z,2.47
2017-06-26T03:24:44.662Z,2.42
2017-06-26T03:27:13.846Z,2.37
2017-06-26T03:29:42.982Z,2.65
2017-06-26T03:32:12.152Z,2.60
2017-06-26T03:34:41.316Z,3.62
2017-06-26T03:37:10.489Z,2.90
2017-06-26T03:39:39.662Z,2.55
2017-06-26T03:42:08.813Z,2.78
2017-06-26T03:44:37.979Z,2.37
2017-06-26T03:47:07.131Z,2.30
2017-06-26T03:49:36.294Z,2.60
2017-06-26T03:52:05.450Z,2.75
2017-06-26T03:54:34.603Z,2.60
2017-06-26T03:57:03.750Z,2.63
2017-06-26T03:59:32.898Z,2.92
2017-06-26T04:02:02.060Z,2.40
2017-06-26T04:04:31.217Z,2.33
2017-06-26T04:07:00.412Z,2.83
2017-06-26T04:09:29.574Z,2.40
2017-06-26T04:11:58.721Z,2.70
2017-06-26T04:14:27.879Z,2.20
2017-06-26T04:16:57.027Z,2.35
2017-06-26T04:19:26.168Z,3.08
2017-06-26T04:21:55.360Z,2.33
2017-06-26T04:24:24.502Z,2.80
2017-06-26T04:26:53.662Z,2.73
2017-06-26T04:29:22.804Z,2.33
2017-06-26T04:31:51.954Z,2.47
2017-06-26T04:34:21.396Z,2.33
2017-06-26T04:36:50.576Z,3.27
2017-06-26T04:39:19.723Z,2.80
2017-06-26T04:41:48.870Z,3.00
2017-06-26T04:44:18.032Z,2.77
2017-06-26T04:46:47.181Z,2.63
2017-06-26T04:49:16.327Z,3.10
2017-06-26T04:51:45.520Z,2.90
2017-06-26T04:54:14.666Z,3.40
2017-06-26T04:56:43.812Z,3.90
2017-06-26T04:59:12.957Z,2.90
2017-06-26T05:01:42.102Z,2.63
2017-06-26T05:04:11.266Z,2.60
2017-06-26T05:06:40.442Z,3.40
2017-06-26T05:09:09.587Z,2.77
2017-06-26T05:11:38.742Z,2.67
2017-06-26T05:14:07.896Z,2.50
2017-06-26T05:16:37.041Z,3.87
2017-06-26T05:19:06.191Z,2.60
2017-06-26T05:21:35.369Z,2.30
2017-06-26T05:24:04.504Z,2.47
2017-06-26T05:26:33.655Z,2.80
2017-06-26T05:29:02.814Z,2.30
2017-06-26T05:31:32.012Z,2.73
2017-06-26T05:34:01.188Z,2.90
2017-06-26T05:36:30.656Z,2.50
2017-06-26T05:38:59.785Z,2.90
2017-06-26T05:41:28.948Z,2.80
2017-06-26T05:43:58.103Z,2.60
2017-06-26T05:46:27.255Z,2.53
2017-06-26T05:48:56.423Z,2.50
2017-06-26T05:51:25.572Z,2.67
2017-06-26T05:53:54.708Z,2.00
2017-06-26T05:56:23.854Z,2.30
2017-06-26T05:58:53.034Z,2.00
2017-06-26T06:01:22.172Z,2.10
2017-06-26T06:03:51.323Z,2.63
2017-06-26T06:06:20.492Z,2.07
2017-06-26T06:08:49.650Z,2.50
2017-06-26T06:11:18.793Z,2.07
2017-06-26T06:13:47.938Z,2.00
2017-06-26T06:16:17.097Z,2.00
2017-06-26T06:18:46.243Z,2.30
2017-06-26T06:21:15.423Z,1.83
2017-06-26T06:23:44.574Z,1.77
2017-06-26T06:26:13.751Z,2.00
2017-06-26T06:28:42.903Z,1.93
2017-06-26T06:31:12.047Z,1.70
2017-06-26T06:33:41.218Z,2.07
2017-06-26T06:36:10.394Z,1.90
2017-06-26T06:38:40.396Z,2.03
2017-06-26T06:41:09.541Z,1.97
2017-06-26T06:43:38.694Z,1.77
2017-06-26T06:46:07.838Z,1.83
2017-06-26T06:48:36.986Z,1.70
2017-06-26T06:51:06.178Z,1.77
2017-06-26T06:53:35.319Z,2.10
2017-06-26T06:56:04.457Z,2.17
2017-06-26T06:58:33.621Z,1.83
2017-06-26T07:01:02.773Z,2.30
2017-06-26T07:03:31.934Z,1.90
2017-06-26T07:06:01.092Z,1.90
2017-06-26T07:08:30.250Z,1.87
2017-06-26T07:10:59.406Z,2.00
2017-06-26T07:13:28.534Z,1.57
2017-06-26T07:15:57.694Z,1.80
2017-06-26T07:18:26.840Z,1.87
2017-06-26T07:20:56.034Z,1.70
2017-06-26T07:23:25.176Z,1.80
2017-06-26T07:25:54.333Z,1.70
2017-06-26T07:28:23.495Z,1.90
2017-06-26T07:30:52.651Z,1.90
2017-06-26T07:33:21.807Z,1.80
2017-06-26T07:35:50.967Z,1.80
2017-06-26T07:38:20.130Z,2.00
2017-06-26T07:40:49.270Z,1.90
2017-06-26T07:43:18.430Z,1.97
2017-06-26T07:45:47.594Z,1.60
2017-06-26T07:48:16.753Z,1.70
2017-06-26T07:50:45.945Z,1.77
2017-06-26T07:53:15.091Z,2.13
2017-06-26T07:55:44.230Z,2.20
2017-06-26T07:58:13.377Z,1.97
2017-06-26T08:00:42.551Z,2.27
2017-06-26T08:03:11.713Z,1.73
2017-06-26T08:05:41.111Z,1.90
2017-06-26T08:08:10.247Z,1.83
2017-06-26T08:10:39.418Z,1.90
2017-06-26T08:13:08.573Z,2.03
2017-06-26T08:15:37.723Z,2.10
2017-06-26T08:18:06.878Z,1.60
2017-06-26T08:20:36.044Z,1.40
2017-06-26T08:23:05.195Z,1.50
2017-06-26T08:25:34.335Z,1.53
2017-06-26T08:28:03.488Z,1.50
2017-06-26T08:30:32.641Z,1.90
2017-06-26T08:33:01.795Z,1.60
2017-06-26T08:35:30.968Z,1.60
2017-06-26T08:38:00.100Z,1.77
2017-06-26T08:40:29.239Z,1.60
2017-06-26T08:42:58.402Z,2.40
2017-06-26T08:45:27.545Z,1.67
2017-06-26T08:47:56.724Z,1.60
2017-06-26T08:50:25.884Z,1.70
2017-06-26T08:52:55.064Z,1.93
2017-06-26T08:55:24.222Z,1.57
2017-06-26T08:57:53.361Z,1.93
2017-06-26T09:00:22.508Z,1.40
2017-06-26T09:02:51.670Z,1.67
2017-06-26T09:05:20.824Z,1.97
2017-06-26T09:07:49.956Z,1.93
2017-06-26T09:10:19.122Z,1.77
2017-06-26T09:12:48.270Z,2.00
2017-06-26T09:15:17.433Z,3.40
2017-06-26T09:17:46.569Z,1.60
2017-06-26T09:20:15.714Z,1.40
2017-06-26T09:22:44.855Z,1.70
2017-06-26T09:25:13.988Z,2.17
2017-06-26T09:27:43.142Z,2.10
2017-06-26T09:30:12.264Z,2.43
2017-06-26T09:32:41.423Z,4.63
2017-06-26T09:35:10.568Z,1.60
2017-06-26T09:37:39.711Z,1.80
2017-06-26T09:40:08.869Z,1.63
2017-06-26T09:42:38.003Z,2.03
2017-06-26T09:45:07.163Z,2.90
2017-06-26T09:47:36.295Z,1.73
2017-06-26T09:50:05.451Z,1.80
2017-06-26T09:52:34.606Z,1.70
2017-06-26T09:55:03.738Z,1.70
2017-06-26T09:57:32.882Z,2.00
2017-06-26T10:00:02.043Z,1.50
2017-06-26T10:02:31.194Z,1.90
2017-06-26T10:05:00.402Z,1.80
2017-06-26T10:07:29.548Z,1.80
2017-06-26T10:09:58.697Z,1.50
2017-06-26T10:12:27.835Z,1.90
2017-06-26T10:14:56.985Z,1.60
2017-06-26T10:17:26.143Z,2.17
2017-06-26T10:19:55.290Z,1.60
2017-06-26T10:22:24.429Z,1.67
2017-06-26T10:24:53.588Z,1.50
2017-06-26T10:27:22.732Z,1.80
2017-06-26T10:29:51.874Z,1.40
2017-06-26T10:32:21.018Z,2.37
2017-06-26T10:34:50.152Z,1.50
2017-06-26T10:37:19.332Z,1.60
2017-06-26T10:39:48.474Z,1.80
2017-06-26T10:42:17.620Z,1.80
2017-06-26T10:44:46.775Z,1.63
2017-06-26T10:47:15.905Z,1.47
2017-06-26T10:49:45.070Z,1.60
2017-06-26T10:52:14.212Z,1.83
2017-06-26T10:54:43.358Z,1.50
2017-06-26T10:57:12.506Z,1.60
2017-06-26T10:59:41.649Z,1.73
2017-06-26T11:02:10.782Z,1.60
2017-06-26T11:04:40.014Z,1.57
2017-06-26T11:07:09.168Z,1.60
2017-06-26T11:09:38.308Z,1.67
2017-06-26T11:12:07.442Z,1.57
2017-06-26T11:14:36.586Z,1.57
2017-06-26T11:17:05.751Z,2.13
2017-06-26T11:19:34.907Z,2.23
2017-06-26T11:22:04.089Z,1.80
2017-06-26T11:24:33.222Z,1.70
2017-06-26T11:27:02.362Z,2.00
2017-06-26T11:29:31.521Z,2.00
2017-06-26T11:32:00.654Z,1.70
2017-06-26T11:34:29.799Z,1.73
2017-06-26T11:36:58.972Z,1.97
2017-06-26T11:39:28.133Z,1.70
2017-06-26T11:41:57.285Z,1.80
2017-06-26T11:44:26.434Z,1.90
2017-06-26T11:46:55.583Z,1.97
2017-06-26T11:49:24.731Z,2.00
2017-06-26T11:51:53.899Z,2.13
2017-06-26T11:54:23.038Z,1.77
2017-06-26T11:56:52.193Z,1.70
2017-06-26T11:59:21.374Z,1.97
2017-06-26T12:01:50.524Z,1.93
2017-06-26T12:04:19.660Z,1.60
2017-06-26T12:06:48.816Z,1.87
2017-06-26T12:09:17.954Z,1.80
2017-06-26T12:11:47.098Z,1.80
2017-06-26T12:14:16.258Z,1.77
2017-06-26T12:16:45.403Z,2.03
2017-06-26T12:19:14.551Z,1.60
2017-06-26T12:21:43.717Z,2.23
2017-06-26T12:24:12.862Z,1.80
2017-06-26T12:26:42.005Z,1.60
2017-06-26T12:29:11.142Z,1.70
2017-06-26T12:31:40.286Z,1.80
2017-06-26T12:34:09.432Z,1.80
2017-06-26T12:36:38.576Z,2.40
2017-06-26T12:39:07.735Z,1.80
2017-06-26T12:41:36.890Z,1.80
2017-06-26T12:44:06.054Z,1.70
2017-06-26T12:46:35.203Z,1.60
2017-06-26T12:49:04.355Z,2.07
2017-06-26T12:51:33.495Z,1.73
2017-06-26T12:54:02.671Z,1.63
2017-06-26T12:56:31.830Z,1.93
2017-06-26T12:59:00.975Z,1.70
2017-06-26T13:01:30.116Z,2.10
2017-06-26T13:03:59.272Z,1.80
2017-06-26T13:06:28.433Z,2.50
2017-06-26T13:08:57.576Z,2.37
2017-06-26T13:11:26.734Z,2.40
2017-06-26T13:13:55.876Z,2.40
2017-06-26T13:16:25.012Z,2.70
2017-06-26T13:18:54.172Z,2.57
2017-06-26T13:21:23.322Z,2.03
2017-06-26T13:23:52.463Z,2.33
2017-06-26T13:26:21.624Z,2.20
2017-06-26T13:28:50.779Z,1.90
2017-06-26T13:31:19.927Z,2.07
2017-06-26T13:33:49.074Z,2.40
2017-06-26T13:36:18.233Z,2.50
2017-06-26T13:38:47.374Z,2.50
2017-06-26T13:41:16.532Z,2.53
2017-06-26T13:43:45.670Z,2.60
2017-06-26T13:46:14.819Z,2.70
2017-06-26T13:48:43.975Z,2.57
2017-06-26T13:51:13.142Z,2.37
2017-06-26T13:53:42.299Z,2.17
2017-06-26T13:56:11.462Z,2.60
2017-06-26T13:58:40.609Z,3.17
2017-06-26T14:01:09.765Z,2.37
2017-06-26T14:03:38.929Z,2.53
2017-06-26T14:06:08.079Z,2.60
2017-06-26T14:08:37.237Z,2.40
2017-06-26T14:11:06.388Z,2.37
2017-06-26T14:13:35.530Z,2.70
2017-06-26T14:16:04.672Z,2.13
2017-06-26T14:18:33.831Z,2.40
2017-06-26T14:21:02.991Z,2.40
2017-06-26T14:23:32.130Z,2.47
2017-06-26T14:26:01.288Z,2.47
2017-06-26T14:28:30.461Z,2.40
2017-06-26T14:30:59.607Z,2.50
2017-06-26T14:33:28.772Z,2.80
2017-06-26T14:35:57.923Z,2.77
2017-06-26T14:38:27.063Z,2.70
2017-06-26T14:40:56.207Z,2.70
2017-06-26T14:43:25.354Z,2.87
2017-06-26T14:45:54.530Z,2.90
2017-06-26T14:48:23.670Z,2.67
2017-06-26T14:50:52.824Z,2.90
2017-06-26T14:53:21.968Z,2.67
2017-06-26T14:55:51.115Z,3.13
2017-06-26T14:58:20.285Z,2.70
2017-06-26T15:00:49.427Z,2.70
2017-06-26T15:03:18.567Z,3.07
2017-06-26T15:05:47.747Z,2.70
2017-06-26T15:08:16.883Z,3.23
2017-06-26T15:10:46.049Z,2.90
2017-06-26T15:13:15.170Z,3.20
2017-06-26T15:15:44.322Z,2.67
2017-06-26T15:18:13.468Z,2.80
2017-06-26T15:20:42.630Z,2.77
2017-06-26T15:23:11.779Z,3.03
2017-06-26T15:25:40.932Z,2.97
2017-06-26T15:28:10.080Z,3.47
2017-06-26T15:30:39.220Z,3.23
2017-06-26T15:33:08.372Z,3.30
2017-06-26T15:35:37.515Z,3.20
2017-06-26T15:38:06.697Z,3.10
2017-06-26T15:40:35.867Z,3.43
2017-06-26T15:43:04.987Z,3.00
2017-06-26T15:45:34.137Z,3.43
2017-06-26T15:48:03.274Z,3.27
2017-06-26T15:50:32.437Z,3.80
2017-06-26T15:53:01.584Z,3.20
2017-06-26T15:55:30.732Z,3.33
2017-06-26T15:57:59.888Z,3.00
2017-06-26T16:00:29.030Z,3.43
2017-06-26T16:02:58.193Z,3.10
2017-06-26T16:05:27.337Z,3.53
2017-06-26T16:07:56.489Z,3.93
2017-06-26T16:10:25.647Z,3.70
2017-06-26T16:12:54.807Z,3.73
2017-06-26T16:15:23.969Z,3.10
2017-06-26T16:17:53.109Z,3.53
2017-06-26T16:20:22.291Z,3.87
2017-06-26T16:22:51.443Z,3.43
2017-06-26T16:25:20.607Z,3.73
2017-06-26T16:27:49.754Z,3.33
2017-06-26T16:30:18.922Z,4.10
2017-06-26T16:32:48.084Z,4.10
2017-06-26T16:35:17.264Z,3.70
2017-06-26T16:37:46.416Z,3.70
2017-06-26T16:40:15.570Z,4.30
2017-06-26T16:42:44.723Z,4.23
2017-06-26T16:45:13.875Z,4.80
2017-06-26T16:47:44.159Z,4.37
2017-06-26T16:50:13.332Z,3.73
2017-06-26T16:52:42.457Z,3.80
2017-06-26T16:55:11.619Z,3.40
2017-06-26T16:57:40.767Z,4.33
2017-06-26T17:00:09.919Z,3.87
2017-06-26T17:02:39.068Z,4.10
2017-06-26T17:05:08.215Z,4.80
2017-06-26T17:07:37.391Z,4.20
2017-06-26T17:10:06.530Z,3.70
2017-06-26T17:12:35.672Z,4.40
2017-06-26T17:15:04.822Z,3.70
2017-06-26T17:17:33.965Z,4.63
2017-06-26T17:20:03.112Z,4.40
2017-06-26T17:22:32.273Z,4.30
2017-06-26T17:25:01.423Z,5.50
2017-06-26T17:27:30.563Z,4.77
2017-06-26T17:29:59.706Z,4.33
2017-06-26T17:32:28.920Z,4.20
2017-06-26T17:34:58.082Z,4.70
2017-06-26T17:37:27.230Z,4.70
2017-06-26T17:39:56.410Z,5.37
2017-06-26T17:42:25.548Z,4.67
2017-06-26T17:44:54.722Z,5.03
2017-06-26T17:47:23.889Z,4.47
2017-06-26T17:49:53.089Z,4.80
2017-06-26T17:52:22.259Z,4.60
2017-06-26T17:54:51.423Z,4.73
2017-06-26T17:57:20.567Z,4.47
2017-06-26T17:59:49.699Z,4.70
2017-06-26T18:02:18.845Z,4.93
2017-06-26T18:04:48.004Z,4.93
2017-06-26T18:07:17.214Z,5.23
2017-06-26T18:09:46.370Z,5.10
2017-06-26T18:12:15.514Z,5.00
2017-06-26T18:14:44.661Z,5.50
2017-06-26T18:17:13.810Z,5.17
2017-06-26T18:19:42.981Z,4.60
2017-06-26T18:22:12.141Z,5.47
2017-06-26T18:24:41.305Z,5.00
2017-06-26T18:27:10.479Z,4.90
2017-06-26T18:29:39.643Z,5.50
2017-06-26T18:32:08.783Z,5.40
2017-06-26T18:34:37.955Z,5.53
2017-06-26T18:37:07.114Z,5.20
2017-06-26T18:39:36.290Z,5.90
2017-06-26T18:42:05.430Z,4.97
2017-06-26T18:44:34.613Z,5.10
2017-06-26T18:47:03.911Z,5.77
2017-06-26T18:49:33.123Z,4.90
2017-06-26T18:52:02.289Z,5.43
2017-06-26T18:54:31.453Z,5.63
2017-06-26T18:57:00.617Z,5.23
2017-06-26T18:59:29.775Z,5.90
2017-06-26T19:01:58.935Z,5.20
2017-06-26T19:04:28.087Z,4.83
2017-06-26T19:06:57.268Z,4.83
2017-06-26T19:09:26.436Z,4.90
2017-06-26T19:11:55.595Z,5.33
2017-06-26T19:14:24.742Z,5.77
2017-06-26T19:16:53.926Z,5.53
2017-06-26T19:19:23.090Z,5.50
2017-06-26T19:21:52.245Z,5.40
2017-06-26T19:24:21.434Z,5.17
2017-06-26T19:26:50.603Z,5.40
2017-06-26T19:29:19.772Z,4.93
2017-06-26T19:31:48.923Z,5.50
2017-06-26T19:34:18.080Z,5.20
2017-06-26T19:36:47.247Z,4.97
2017-06-26T19:39:16.410Z,5.63
2017-06-26T19:41:45.603Z,5.27
2017-06-26T19:44:14.787Z,4.87
2017-06-26T19:46:43.966Z,5.30
2017-06-26T19:49:13.106Z,5.23
2017-06-26T19:51:42.274Z,6.00
2017-06-26T19:54:11.424Z,5.70
2017-06-26T19:56:40.601Z,5.70
2017-06-26T19:59:09.751Z,5.10
2017-06-26T20:01:38.903Z,5.37
2017-06-26T20:04:08.121Z,5.80
2017-06-26T20:06:37.279Z,5.20
2017-06-26T20:09:06.437Z,6.30
2017-06-26T20:11:35.601Z,5.30
2017-06-26T20:14:04.759Z,5.63
2017-06-26T20:16:33.912Z,6.70
2017-06-26T20:19:03.084Z,5.83
2017-06-26T20:21:32.242Z,5.03
2017-06-26T20:24:01.418Z,6.10
2017-06-26T20:26:30.974Z,5.57
2017-06-26T20:29:00.114Z,6.40
2017-06-26T20:31:29.267Z,6.10
2017-06-26T20:33:58.418Z,7.10
2017-06-26T20:36:27.583Z,6.50
2017-06-26T20:38:56.744Z,6.33
2017-06-26T20:41:25.887Z,6.50
2017-06-26T20:43:55.079Z,6.07
2017-06-26T20:46:24.227Z,6.77
2017-06-26T20:48:53.403Z,6.37
2017-06-26T20:51:22.574Z,6.67
2017-06-26T20:53:51.722Z,5.93
2017-06-26T20:56:20.890Z,7.30
2017-06-26T20:58:50.066Z,7.00
2017-06-26T21:01:19.229Z,6.67
2017-06-26T21:03:48.389Z,6.70
2017-06-26T21:06:17.543Z,5.80
2017-06-26T21:08:46.723Z,7.00
2017-06-26T21:11:15.873Z,7.10
2017-06-26T21:13:45.055Z,7.30
2017-06-26T21:16:14.199Z,7.20
2017-06-26T21:18:43.358Z,7.37
2017-06-26T21:21:12.521Z,7.57
2017-06-26T21:23:41.675Z,7.43
2017-06-26T21:26:10.828Z,7.47
2017-06-26T21:28:39.986Z,8.70
2017-06-26T21:31:09.598Z,8.33
2017-06-26T21:33:38.748Z,7.47
2017-06-26T21:36:07.918Z,8.00
2017-06-26T21:38:37.072Z,9.10
2017-06-26T21:41:06.214Z,7.10
2017-06-26T21:43:35.389Z,8.00
2017-06-26T21:46:04.543Z,8.53
2017-06-26T21:48:33.703Z,8.20
2017-06-26T21:51:02.879Z,7.57
2017-06-26T21:53:32.047Z,8.83
2017-06-26T21:56:01.255Z,8.60
2017-06-26T21:58:30.422Z,7.27
2017-06-26T22:00:59.567Z,8.13
2017-06-26T22:03:28.732Z,9.03
2017-06-26T22:05:57.900Z,9.03
2017-06-26T22:08:27.076Z,9.40
2017-06-26T22:10:56.232Z,9.00
2017-06-26T22:13:25.381Z,8.50
2017-06-26T22:15:54.544Z,9.40
2017-06-26T22:18:23.695Z,8.93
2017-06-26T22:20:52.863Z,8.90
2017-06-26T22:23:22.060Z,10.20
2017-06-26T22:25:51.190Z,9.20
2017-06-26T22:28:20.370Z,8.60
2017-06-26T22:30:49.511Z,8.77
2017-06-26T22:33:18.654Z,10.10
2017-06-26T22:35:47.844Z,8.23
2017-06-26T22:38:17.012Z,8.93
2017-06-26T22:40:46.174Z,9.03
2017-06-26T22:43:15.320Z,9.83
2017-06-26T22:45:44.496Z,9.60
2017-06-26T22:48:13.641Z,8.27
2017-06-26T22:50:42.807Z,8.53
2017-06-26T22:53:11.973Z,9.30
2017-06-26T22:55:41.131Z,9.13
2017-06-26T22:58:10.271Z,8.90
2017-06-26T23:00:39.439Z,10.33
2017-06-26T23:03:08.599Z,8.73
2017-06-26T23:05:37.789Z,8.97
2017-06-26T23:08:06.937Z,10.10
2017-06-26T23:10:36.081Z,9.23
2017-06-26T23:13:05.240Z,9.67
2017-06-26T23:15:34.394Z,9.30
2017-06-26T23:18:03.553Z,9.57
2017-06-26T23:20:32.728Z,8.90
2017-06-26T23:23:01.884Z,9.03
2017-06-26T23:25:31.049Z,9.23
2017-06-26T23:28:00.227Z,10.03
2017-06-26T23:30:29.373Z,9.50
2017-06-26T23:32:58.550Z,9.15
2017-06-26T23:35:27.713Z,9.33
2017-06-26T23:37:56.870Z,9.13
2017-06-26T23:40:26.040Z,10.00
2017-06-26T23:42:55.198Z,9.43
2017-06-26T23:45:24.360Z,9.40
2017-06-26T23:47:53.516Z,9.53
2017-06-26T23:50:22.662Z,8.40
2017-06-26T23:52:51.872Z,8.33
2017-06-26T23:55:21.015Z,8.03
2017-06-26T23:57:50.167Z,8.20
